KMIV

Millville Municipal Airport

Millville, New Jersey, USA
METAR KMIV 211454Z AUTO 33014G28KT 290V360 10SM BKN039 09/00 A3000 RMK AO2 PK WND 35031/1438 SLP158 T00940000 51039
Observed Flight Rules
Oct-21 @ 14:54 UTC (40 minutes ago) Visual Flight Rules
Wind Visibility Clouds
330° at 14 knots
 Gusting to 28 knots
10 miles
  • Broken at 3,900' AGL
Temperatures Readings
Current 9°C / 48°F
Dewpoint 0°C / 32°F
Humidity 54%
Altimeter 30" Hg
Pressure 1015.8 hPa
Elevation 23
METAR KMIV 211454Z AUTO 33014G28KT 290V360 10SM BKN039 09/00 A3000 RMK AO2 PK WND 35031/1438 SLP158 T00940000 51039
Observed Flight Rules
Oct-21 @ 14:54 UTC
(40 minutes ago)
VFR
Wind Visibility
330° at 14 knots
 Gusting to 28 knots
10 miles
Clouds
  • Broken at 3,900' AGL
Temperature Dewpoint
9°C / 48°F 0°C / 32°F
Humidity Altimeter Pressure
54% 30" Hg 1015.8 hPa